Time;durP1;ratioP1;P1;durP2;ratioP2;P2;SDS_P1;SDS_P2;PMS_P1;PMS_P2;Temp;Humidity;BMP_temperature;BMP_pressure;BME280_temperature;BME280_humidity;BME280_pressure;Samples;Min_cycle;Max_cycle;Signal;HPM_P1;HPM_P2
2024/03/04 00:01:29;;;;;;;3.67;1.87;;;;;;;2.13;100.00;96494.28;6306689;28;20190;-55
2024/03/04 00:04:32;;;;;;;3.37;1.20;;;;;;;2.18;100.00;96515.47;6296570;28;20205;-51
2024/03/04 00:07:35;;;;;;;3.23;1.10;;;;;;;2.12;100.00;96517.13;6303229;28;20752;-52
2024/03/04 00:10:37;;;;;;;4.53;1.63;;;;;;;2.20;100.00;96518.66;6307512;28;20206;-54
2024/03/04 00:13:40;;;;;;;2.10;1.07;;;;;;;2.15;100.00;96511.44;6288591;28;20199;-49
2024/03/04 00:16:42;;;;;;;1.87;1.20;;;;;;;2.59;100.00;96520.06;6298416;28;20204;-55
2024/03/04 00:19:44;;;;;;;1.70;1.07;;;;;;;2.31;100.00;96512.69;6296420;28;20221;-50
2024/03/04 00:22:47;;;;;;;2.93;0.97;;;;;;;2.31;100.00;96518.72;6308949;28;20229;-54
2024/03/04 00:25:50;;;;;;;3.80;1.60;;;;;;;2.31;100.00;96515.31;6316838;28;20197;-54
2024/03/04 00:28:52;;;;;;;3.47;1.57;;;;;;;2.38;100.00;96512.63;6313006;28;20198;-56
2024/03/04 00:31:54;;;;;;;5.40;1.63;;;;;;;2.43;100.00;96513.56;6303023;28;20211;-49
2024/03/04 00:34:56;;;;;;;1.97;1.03;;;;;;;2.20;100.00;96516.84;6290337;28;20285;-54
2024/03/04 00:37:58;;;;;;;3.23;1.17;;;;;;;2.18;100.00;96504.94;6305226;28;20192;-51
2024/03/04 00:41:00;;;;;;;4.27;1.40;;;;;;;1.96;100.00;96515.03;6307170;28;20186;-55
2024/03/04 00:44:03;;;;;;;2.93;1.40;;;;;;;1.92;100.00;96519.94;6307090;28;20201;-54
2024/03/04 00:47:06;;;;;;;3.23;2.43;;;;;;;2.06;100.00;96510.09;6312256;28;20208;-49
2024/03/04 00:50:10;;;;;;;4.43;1.80;;;;;;;2.11;100.00;96510.25;6313600;28;20276;-53
2024/03/04 00:53:12;;;;;;;3.53;1.60;;;;;;;2.11;100.00;96509.44;6271032;28;20211;-56
2024/03/04 00:56:15;;;;;;;1.97;1.20;;;;;;;2.08;100.00;96520.41;6315335;28;20203;-50
2024/03/04 00:59:17;;;;;;;5.57;2.70;;;;;;;2.00;100.00;96518.84;6319427;28;20282;-56
2024/03/04 01:02:20;;;;;;;2.83;1.50;;;;;;;1.73;100.00;96526.97;6311869;28;20188;-56
2024/03/04 01:05:22;;;;;;;3.00;1.10;;;;;;;1.69;100.00;96517.91;6312188;28;20275;-51
2024/03/04 01:08:24;;;;;;;5.77;1.10;;;;;;;1.67;100.00;96524.38;6311627;28;20199;-52
2024/03/04 01:11:26;;;;;;;1.93;0.90;;;;;;;1.69;100.00;96517.91;6300184;28;20203;-51
2024/03/04 01:14:29;;;;;;;2.57;1.40;;;;;;;1.73;100.00;96519.09;6292493;28;20273;-56
2024/03/04 01:17:31;;;;;;;3.87;1.27;;;;;;;2.06;100.00;96523.22;6317915;28;20680;-55
2024/03/04 01:20:33;;;;;;;2.27;1.13;;;;;;;1.87;100.00;96516.31;6310592;28;20211;-53
2024/03/04 01:23:37;;;;;;;2.43;1.40;;;;;;;1.95;100.00;96510.81;6310881;28;20576;-50
2024/03/04 01:26:39;;;;;;;2.30;1.20;;;;;;;1.95;100.00;96513.44;6309396;28;20201;-53
2024/03/04 01:29:41;;;;;;;1.67;1.57;;;;;;;1.95;100.00;96511.63;6314221;28;20220;-53
2024/03/04 01:32:44;;;;;;;1.80;1.43;;;;;;;1.80;100.00;96519.03;6313957;28;20249;-54
2024/03/04 01:35:47;;;;;;;3.50;2.00;;;;;;;1.69;100.00;96510.03;6313487;28;20297;-52
2024/03/04 01:38:49;;;;;;;2.80;1.43;;;;;;;2.10;100.00;96513.91;6297094;28;20768;-53
2024/03/04 01:41:51;;;;;;;3.43;2.10;;;;;;;1.78;100.00;96513.19;6304379;28;20224;-51
2024/03/04 01:44:53;;;;;;;7.10;2.70;;;;;;;1.73;100.00;96513.03;6314928;28;20274;-55
2024/03/04 01:48:03;;;;;;;2.07;1.33;;;;;;;1.71;100.00;96494.03;6314288;28;20210;-50
2024/03/04 01:51:06;;;;;;;2.30;1.17;;;;;;;1.70;100.00;96514.25;6309426;28;20801;-55
2024/03/04 01:54:10;;;;;;;1.77;1.10;;;;;;;1.70;100.00;96511.63;6300458;28;20690;-55
2024/03/04 01:57:17;;;;;;;1.63;0.90;;;;;;;1.62;100.00;96513.69;6301435;28;20686;-53
2024/03/04 02:00:23;;;;;;;2.13;0.90;;;;;;;1.62;100.00;96509.25;6310217;28;20198;-54
2024/03/04 02:03:26;;;;;;;1.50;0.80;;;;;;;2.06;100.00;96508.25;6330757;28;20298;-53
2024/03/04 02:06:28;;;;;;;2.07;0.90;;;;;;;1.61;100.00;96512.09;6306526;28;20204;-55
2024/03/04 02:09:31;;;;;;;2.37;0.97;;;;;;;1.68;100.00;96511.03;6315914;28;20213;-53
2024/03/04 02:12:34;;;;;;;2.53;1.00;;;;;;;1.64;100.00;96493.31;6312505;28;20295;-55
2024/03/04 02:15:37;;;;;;;1.07;0.80;;;;;;;1.78;100.00;96511.38;6319730;28;20355;-52
2024/03/04 02:18:40;;;;;;;3.60;1.30;;;;;;;1.57;100.00;96509.09;6309353;28;20237;-52
2024/03/04 02:21:50;;;;;;;5.60;1.13;;;;;;;1.51;100.00;96512.56;6313780;28;20219;-53
2024/03/04 02:24:53;;;;;;;1.50;1.10;;;;;;;1.37;100.00;96490.06;6312060;28;20207;-53
2024/03/04 02:27:56;;;;;;;1.47;1.10;;;;;;;1.68;100.00;96512.88;6307638;28;20184;-55
2024/03/04 02:31:00;;;;;;;1.40;1.17;;;;;;;1.50;100.00;96517.03;6309071;28;20240;-55
2024/03/04 02:34:05;;;;;;;4.73;1.27;;;;;;;1.49;100.00;96518.03;6302762;28;20224;-55
2024/03/04 02:37:08;;;;;;;1.10;1.00;;;;;;;1.44;100.00;96524.94;6312424;28;20285;-55
2024/03/04 02:40:10;;;;;;;0.80;0.80;;;;;;;1.42;100.00;96524.34;6307708;28;20564;-55
2024/03/04 02:43:13;;;;;;;2.60;0.77;;;;;;;1.70;100.00;96524.75;6305385;28;20231;-55
2024/03/04 02:46:16;;;;;;;4.03;1.10;;;;;;;1.73;100.00;96524.34;6305105;28;20198;-54
2024/03/04 02:49:19;;;;;;;3.27;1.13;;;;;;;1.54;100.00;96526.09;6311465;28;20184;-54
2024/03/04 02:52:21;;;;;;;2.67;1.00;;;;;;;1.27;100.00;96524.63;6304666;28;20590;-55
2024/03/04 02:55:23;;;;;;;1.90;0.90;;;;;;;1.25;100.00;96522.22;6305031;28;20600;-55
2024/03/04 02:58:27;;;;;;;2.80;0.80;;;;;;;1.24;100.00;96517.22;6308368;28;20283;-56
2024/03/04 03:01:30;;;;;;;1.53;0.90;;;;;;;1.14;100.00;96519.50;6302804;28;20672;-55
2024/03/04 03:04:32;;;;;;;4.00;0.97;;;;;;;1.26;100.00;96526.47;6310458;28;20611;-56
2024/03/04 03:07:34;;;;;;;1.33;0.73;;;;;;;1.32;100.00;96516.13;6308201;28;20233;-55
2024/03/04 03:10:37;;;;;;;5.10;1.33;;;;;;;1.34;100.00;96529.88;6309732;28;20843;-55
2024/03/04 03:13:39;;;;;;;3.03;1.23;;;;;;;1.51;100.00;96521.25;6294998;28;20231;-52
2024/03/04 03:16:41;;;;;;;2.03;0.90;;;;;;;1.86;100.00;96523.41;6301967;28;20187;-56
2024/03/04 03:19:44;;;;;;;1.67;1.13;;;;;;;1.29;100.00;96531.28;6309464;28;20540;-51
2024/03/04 03:22:48;;;;;;;2.00;1.07;;;;;;;1.09;100.00;96529.81;6305880;28;20471;-52
2024/03/04 03:25:51;;;;;;;2.67;0.90;;;;;;;1.17;100.00;96526.91;6308642;28;20274;-54
2024/03/04 03:28:53;;;;;;;2.03;1.27;;;;;;;1.10;100.00;96534.84;6309527;28;20195;-55
2024/03/04 03:31:56;;;;;;;4.50;1.80;;;;;;;1.19;100.00;96538.03;6307751;28;20211;-56
2024/03/04 03:34:58;;;;;;;6.73;4.20;;;;;;;1.19;100.00;96544.06;6312358;28;20197;-51
2024/03/04 03:38:00;;;;;;;2.70;2.40;;;;;;;1.50;100.00;96545.88;6314587;28;20190;-51
2024/03/04 03:41:03;;;;;;;4.40;2.40;;;;;;;1.46;100.00;96543.91;6299521;28;20196;-55
2024/03/04 03:44:07;;;;;;;6.87;2.57;;;;;;;1.49;100.00;96552.16;6310777;28;20205;-54
2024/03/04 03:47:09;;;;;;;2.93;2.10;;;;;;;0.60;100.00;96465.72;6294183;28;20724;-55
2024/03/04 03:50:11;;;;;;;2.17;1.37;;;;;;;1.37;100.00;96553.03;6306013;28;20561;-53
2024/03/04 03:53:14;;;;;;;3.03;1.00;;;;;;;1.41;100.00;96564.72;6308573;28;20280;-49
2024/03/04 03:56:17;;;;;;;1.17;1.00;;;;;;;1.27;100.00;96561.38;6300631;28;20195;-53
2024/03/04 03:59:19;;;;;;;2.23;1.00;;;;;;;1.41;100.00;96557.66;6312631;28;20190;-54
2024/03/04 04:02:21;;;;;;;1.73;0.57;;;;;;;1.37;100.00;96548.59;6315416;28;20190;-53
2024/03/04 04:05:23;;;;;;;1.37;0.70;;;;;;;1.50;100.00;96558.22;6306851;28;20681;-53
2024/03/04 04:08:25;;;;;;;1.73;1.00;;;;;;;1.36;100.00;96556.69;6295005;28;20869;-52
2024/03/04 04:11:27;;;;;;;1.07;0.80;;;;;;;1.68;100.00;96550.41;6297136;28;20210;-56
2024/03/04 04:14:30;;;;;;;1.63;0.60;;;;;;;1.14;100.00;96537.84;6302132;28;20191;-52
2024/03/04 04:17:33;;;;;;;1.20;0.90;;;;;;;0.91;100.00;96533.09;6307345;28;20826;-55
2024/03/04 04:20:35;;;;;;;1.87;1.40;;;;;;;1.09;100.00;96566.53;6304032;28;20191;-50
2024/03/04 04:23:37;;;;;;;3.50;2.30;;;;;;;1.02;100.00;96548.97;6308554;28;20219;-50
2024/03/04 04:26:39;;;;;;;2.33;1.27;;;;;;;1.28;100.00;96561.19;6303700;28;20199;-55
2024/03/04 04:29:42;;;;;;;3.03;1.10;;;;;;;1.20;100.00;96569.28;6314511;28;20692;-54
2024/03/04 04:32:44;;;;;;;1.40;0.90;;;;;;;1.01;100.00;96568.34;6310947;28;20585;-52
2024/03/04 04:35:46;;;;;;;2.97;1.17;;;;;;;0.96;100.00;96567.38;6308271;28;20679;-52
2024/03/04 04:38:49;;;;;;;0.80;0.60;;;;;;;0.94;100.00;96574.66;6312188;28;20198;-55
2024/03/04 04:41:51;;;;;;;1.67;0.70;;;;;;;0.88;100.00;96573.66;6305689;28;20222;-52
2024/03/04 04:44:53;;;;;;;1.07;0.70;;;;;;;0.93;100.00;96579.06;6303723;28;20197;-56
2024/03/04 04:47:56;;;;;;;1.87;0.70;;;;;;;0.88;100.00;96583.31;6306068;28;20206;-55
2024/03/04 04:50:59;;;;;;;1.00;0.70;;;;;;;0.78;100.00;96583.75;6306811;28;20575;-54
2024/03/04 04:54:02;;;;;;;2.53;0.80;;;;;;;0.87;100.00;96587.78;6304086;28;20574;-52
2024/03/04 04:57:04;;;;;;;1.43;0.60;;;;;;;0.83;100.00;96588.38;6304477;28;20193;-56
2024/03/04 05:00:07;;;;;;;1.27;0.83;;;;;;;0.68;100.00;96594.69;6300240;28;20657;-56
2024/03/04 05:03:09;;;;;;;1.30;0.60;;;;;;;0.64;100.00;96595.28;6309947;28;20730;-55
2024/03/04 05:06:14;;;;;;;0.90;0.67;;;;;;;0.72;100.00;96602.94;6302470;28;20738;-55
2024/03/04 05:09:18;;;;;;;1.17;0.70;;;;;;;0.59;100.00;96601.19;6309709;28;20194;-56
2024/03/04 05:12:20;;;;;;;3.20;1.57;;;;;;;0.63;100.00;96606.78;6303284;28;20211;-50
2024/03/04 05:15:22;;;;;;;5.47;1.07;;;;;;;0.49;100.00;96611.25;6301289;28;20261;-51
2024/03/04 05:18:25;;;;;;;1.50;0.80;;;;;;;0.39;100.00;96616.09;6302512;28;20202;-52
2024/03/04 05:21:27;;;;;;;4.17;1.00;;;;;;;0.42;100.00;96613.88;6310891;28;20187;-50
2024/03/04 05:24:29;;;;;;;1.10;1.00;;;;;;;0.46;100.00;96611.69;6303873;28;20188;-54
2024/03/04 05:27:32;;;;;;;0.70;0.70;;;;;;;0.39;100.00;96613.47;6312941;28;20625;-54
2024/03/04 05:30:34;;;;;;;2.93;0.83;;;;;;;0.53;100.00;96617.69;6313693;28;20234;-55
2024/03/04 05:33:36;;;;;;;1.27;0.57;;;;;;;0.52;100.00;96616.09;6311146;28;20272;-54
2024/03/04 05:36:43;;;;;;;1.30;0.70;;;;;;;0.39;100.00;96616.91;6307950;28;20206;-52
2024/03/04 05:39:46;;;;;;;2.47;0.80;;;;;;;0.39;100.00;96626.59;6306857;28;20705;-50
2024/03/04 05:42:48;;;;;;;1.53;0.90;;;;;;;0.39;100.00;96623.97;6308048;28;20227;-50
2024/03/04 05:45:53;;;;;;;2.10;0.77;;;;;;;0.52;100.00;96639.69;6309878;28;20270;-54
2024/03/04 05:48:56;;;;;;;2.23;0.70;;;;;;;0.33;100.00;96638.69;6307592;28;20202;-54
2024/03/04 05:51:59;;;;;;;1.03;0.70;;;;;;;0.30;100.00;96633.88;6317172;28;20212;-54
2024/03/04 05:55:03;;;;;;;2.30;0.83;;;;;;;0.32;100.00;96639.69;6297349;28;20187;-55
2024/03/04 05:58:07;;;;;;;0.80;0.70;;;;;;;0.25;100.00;96639.72;6310962;28;20217;-55
2024/03/04 06:01:13;;;;;;;2.27;0.83;;;;;;;0.29;100.00;96649.75;6298329;28;20198;-52
2024/03/04 06:04:15;;;;;;;2.30;0.70;;;;;;;0.40;100.00;96644.75;6309952;28;20584;-52
2024/03/04 06:07:18;;;;;;;2.27;1.07;;;;;;;0.38;100.00;96659.03;6306671;28;20193;-56
2024/03/04 06:10:20;;;;;;;1.00;0.80;;;;;;;0.41;100.00;96656.81;6333357;28;20193;-49
2024/03/04 06:13:22;;;;;;;0.73;0.70;;;;;;;0.48;100.00;96662.84;6337117;28;20227;-52
2024/03/04 06:16:25;;;;;;;0.90;0.87;;;;;;;0.56;100.00;96658.41;6340103;28;20591;-48
2024/03/04 06:19:28;;;;;;;1.83;0.90;;;;;;;0.64;100.00;96659.03;6342565;28;20210;-54
2024/03/04 06:22:31;;;;;;;3.07;0.60;;;;;;;0.97;100.00;96660.75;6339735;28;20217;-53
2024/03/04 06:25:35;;;;;;;1.53;0.80;;;;;;;0.77;100.00;96660.81;6326978;28;20299;-50
2024/03/04 06:28:38;;;;;;;0.63;0.60;;;;;;;0.56;100.00;96643.50;6340463;28;20196;-54
2024/03/04 06:31:41;;;;;;;2.13;1.10;;;;;;;0.75;100.00;96674.13;6337414;28;20576;-53
2024/03/04 06:34:44;;;;;;;1.50;1.00;;;;;;;0.73;100.00;96676.13;6313780;28;20206;-52
2024/03/04 06:37:46;;;;;;;3.83;0.80;;;;;;;0.87;100.00;96676.09;6330736;28;20590;-54
2024/03/04 06:40:49;;;;;;;1.07;0.97;;;;;;;0.96;100.00;96685.38;6328108;28;20186;-55
2024/03/04 06:43:52;;;;;;;1.97;0.90;;;;;;;1.09;100.00;96676.69;6339916;28;20632;-54
2024/03/04 06:46:55;;;;;;;3.03;1.00;;;;;;;1.16;100.00;96674.81;6315315;28;20194;-56
2024/03/04 06:49:57;;;;;;;2.80;1.03;;;;;;;1.19;100.00;96687.53;6333114;28;20190;-55
2024/03/04 06:52:59;;;;;;;3.27;1.10;;;;;;;1.14;100.00;96667.16;6338410;28;20201;-52
2024/03/04 06:56:03;;;;;;;4.63;1.10;;;;;;;1.31;100.00;96692.94;6330832;28;20194;-56
2024/03/04 06:59:06;;;;;;;1.67;1.00;;;;;;;1.43;100.00;96693.88;6337187;28;20343;-55
2024/03/04 07:02:08;;;;;;;1.60;0.80;;;;;;;1.48;100.00;96694.09;6333038;28;20685;-52
2024/03/04 07:05:10;;;;;;;2.23;0.83;;;;;;;1.55;100.00;96700.09;6330219;28;20190;-51
2024/03/04 07:08:12;;;;;;;0.90;0.87;;;;;;;1.90;100.00;96697.09;6330994;28;20330;-52
2024/03/04 07:11:15;;;;;;;1.90;0.70;;;;;;;1.81;100.00;96707.03;6337670;28;20660;-52
2024/03/04 07:14:17;;;;;;;1.17;0.90;;;;;;;1.79;100.00;96703.84;6329001;28;20283;-56
2024/03/04 07:17:20;;;;;;;2.77;0.83;;;;;;;1.78;100.00;96705.66;6339266;28;20564;-57
2024/03/04 07:20:22;;;;;;;1.47;0.63;;;;;;;1.79;100.00;96691.50;6329144;28;20253;-55
2024/03/04 07:23:25;;;;;;;0.87;0.87;;;;;;;1.95;100.00;96700.69;6331074;28;20192;-53
2024/03/04 07:26:27;;;;;;;1.23;0.80;;;;;;;2.48;100.00;96715.31;6311973;28;20275;-55
2024/03/04 07:29:29;;;;;;;6.03;0.90;;;;;;;2.62;100.00;96714.19;6313627;28;20206;-56
2024/03/04 07:32:41;;;;;;;1.83;0.90;;;;;;;2.53;100.00;96718.09;6329276;28;20204;-54
2024/03/04 07:35:44;;;;;;;1.07;0.70;;;;;;;2.85;100.00;96698.59;6333025;28;20333;-54
2024/03/04 07:38:46;;;;;;;0.80;0.77;;;;;;;2.83;100.00;96708.53;6306982;28;20327;-53
2024/03/04 07:41:49;;;;;;;1.67;1.00;;;;;;;2.97;100.00;96713.69;6321128;28;20249;-53
2024/03/04 07:44:52;;;;;;;0.80;0.80;;;;;;;3.17;100.00;96710.84;6322971;28;20192;-54
2024/03/04 07:47:55;;;;;;;0.97;0.60;;;;;;;3.74;100.00;96693.75;6340970;28;20185;-54
2024/03/04 07:50:58;;;;;;;1.33;0.80;;;;;;;3.89;100.00;96714.44;6333015;28;20678;-54
2024/03/04 07:54:00;;;;;;;1.87;0.70;;;;;;;4.00;100.00;96716.34;6331175;28;20336;-49
2024/03/04 07:57:03;;;;;;;2.00;0.73;;;;;;;4.01;100.00;96714.50;6332176;28;20197;-51
2024/03/04 08:00:18;;;;;;;0.80;0.77;;;;;;;4.10;100.00;96719.22;6331419;28;20679;-54
2024/03/04 08:03:20;;;;;;;1.80;0.80;;;;;;;4.21;100.00;96720.28;6332510;28;20186;-53
2024/03/04 08:06:22;;;;;;;1.77;0.80;;;;;;;4.43;100.00;96730.31;6326230;28;20202;-51
2024/03/04 08:09:25;;;;;;;1.03;0.70;;;;;;;4.66;100.00;96735.66;6325307;28;20196;-54
2024/03/04 08:12:27;;;;;;;1.90;0.60;;;;;;;4.96;100.00;96729.47;6337765;28;20579;-55
2024/03/04 08:15:29;;;;;;;1.43;0.90;;;;;;;5.28;100.00;96736.03;6322117;28;20195;-55
2024/03/04 08:18:31;;;;;;;1.43;1.00;;;;;;;5.65;100.00;96733.09;6320434;28;20696;-54
2024/03/04 08:21:33;;;;;;;1.50;1.27;;;;;;;6.05;100.00;96735.75;6324873;28;20612;-55
2024/03/04 08:24:36;;;;;;;3.10;1.10;;;;;;;6.43;100.00;96740.41;6329909;28;20194;-54
2024/03/04 08:27:38;;;;;;;2.83;1.37;;;;;;;7.07;90.50;96734.00;6328765;28;20622;-55
2024/03/04 08:30:40;;;;;;;2.37;1.00;;;;;;;7.43;92.12;96735.31;6333820;28;20409;-55
2024/03/04 08:33:43;;;;;;;1.90;1.10;;;;;;;7.71;94.03;96732.50;6334592;28;20208;-51
2024/03/04 08:36:45;;;;;;;2.03;1.20;;;;;;;8.16;89.74;96744.69;6335262;28;20204;-53
2024/03/04 08:39:47;;;;;;;2.93;1.00;;;;;;;8.51;89.25;96746.91;6327067;28;20197;-49
2024/03/04 08:42:49;;;;;;;1.50;0.70;;;;;;;8.79;86.32;96745.84;6340105;28;20233;-50
2024/03/04 08:45:51;;;;;;;1.90;1.07;;;;;;;9.13;89.83;96747.44;6333787;28;20300;-53
2024/03/04 08:48:54;;;;;;;1.30;0.77;;;;;;;9.28;83.53;96729.72;6331653;28;20191;-50
2024/03/04 08:51:56;;;;;;;0.97;0.70;;;;;;;9.68;82.62;96748.81;6331338;28;20929;-50
2024/03/04 08:54:58;;;;;;;1.23;0.70;;;;;;;9.95;81.30;96754.81;6329898;28;20198;-50
2024/03/04 08:58:01;;;;;;;1.83;0.70;;;;;;;10.20;75.52;96750.63;6330667;28;20337;-48
2024/03/04 09:01:05;;;;;;;1.70;0.80;;;;;;;10.47;73.49;96755.78;6328753;28;20205;-52
2024/03/04 09:04:07;;;;;;;5.13;1.00;;;;;;;10.89;67.67;96757.44;6331438;28;20681;-51
2024/03/04 09:07:10;;;;;;;1.13;0.73;;;;;;;11.38;63.96;96760.34;6316620;28;20201;-54
2024/03/04 09:10:16;;;;;;;3.47;0.80;;;;;;;11.61;63.62;96766.94;6339874;28;20267;-52
2024/03/04 09:13:19;;;;;;;3.30;0.70;;;;;;;11.80;62.15;96783.16;6334858;28;20211;-52
2024/03/04 09:16:21;;;;;;;1.83;0.90;;;;;;;12.06;53.03;96770.56;6329867;28;20354;-55
2024/03/04 09:19:23;;;;;;;0.50;0.50;;;;;;;12.35;56.70;96778.72;6336271;28;20655;-52
2024/03/04 09:22:26;;;;;;;2.50;0.73;;;;;;;12.55;56.73;96775.13;6317960;28;20238;-46
2024/03/04 09:25:28;;;;;;;1.30;0.80;;;;;;;12.82;56.55;96774.69;6334635;28;20291;-52
2024/03/04 09:28:30;;;;;;;0.80;0.60;;;;;;;13.03;54.09;96770.78;6336734;28;20193;-52
2024/03/04 09:31:32;;;;;;;2.17;1.00;;;;;;;13.24;48.86;96776.00;6338260;28;20239;-52
2024/03/04 09:34:38;;;;;;;2.90;0.90;;;;;;;13.50;46.37;96776.59;6339661;28;20220;-52
2024/03/04 09:37:41;;;;;;;3.07;0.93;;;;;;;13.77;46.37;96762.66;6321320;28;20198;-54
2024/03/04 09:40:45;;;;;;;4.10;0.70;;;;;;;14.14;42.50;96776.16;6334109;28;20239;-52
2024/03/04 09:43:48;;;;;;;1.13;0.57;;;;;;;14.28;44.55;96786.13;6333542;28;20366;-52
2024/03/04 09:46:52;;;;;;;5.23;0.90;;;;;;;14.52;40.92;96780.78;6333012;28;20336;-55
2024/03/04 09:49:56;;;;;;;3.53;0.70;;;;;;;14.58;44.05;96767.03;6314761;28;20883;-49
2024/03/04 09:53:01;;;;;;;2.63;0.83;;;;;;;14.87;44.14;96780.25;6334255;28;20260;-54
2024/03/04 09:56:04;;;;;;;2.17;0.90;;;;;;;14.85;40.44;96778.97;6339226;28;20656;-55
2024/03/04 09:59:06;;;;;;;1.93;0.97;;;;;;;15.21;41.26;96780.00;6333209;28;20216;-53
2024/03/04 10:02:11;;;;;;;4.63;1.30;;;;;;;15.36;40.70;96778.16;6321521;28;20238;-55
2024/03/04 10:05:14;;;;;;;2.20;1.13;;;;;;;15.52;40.60;96766.06;6322996;28;20542;-55
2024/03/04 10:08:16;;;;;;;1.50;1.00;;;;;;;15.92;40.33;96787.94;6339796;28;20197;-53
2024/03/04 10:11:18;;;;;;;2.77;0.97;;;;;;;16.22;38.43;96787.31;6332822;28;20267;-53
2024/03/04 10:14:21;;;;;;;3.63;1.50;;;;;;;15.88;38.40;96786.94;6314245;28;21142;-52
2024/03/04 10:17:23;;;;;;;2.07;0.93;;;;;;;16.07;38.70;96790.31;6334070;28;20193;-54
2024/03/04 10:20:26;;;;;;;3.03;1.53;;;;;;;15.95;38.90;96792.69;6333705;28;20546;-53
2024/03/04 10:23:28;;;;;;;1.83;1.27;;;;;;;15.72;40.13;96784.53;6334192;28;20834;-51
2024/03/04 10:26:40;;;;;;;3.77;1.20;;;;;;;15.72;40.13;96786.41;6325796;28;20213;-54
2024/03/04 10:29:42;;;;;;;3.17;1.23;;;;;;;15.82;39.24;96790.81;6334256;28;20190;-45
2024/03/04 10:32:47;;;;;;;2.67;1.20;;;;;;;15.83;38.25;96787.81;6334236;28;20225;-49
2024/03/04 10:36:12;;;;;;;4.93;1.40;;;;;;;15.67;38.94;96787.31;6327459;28;20267;-54
2024/03/04 10:39:16;;;;;;;1.97;1.13;;;;;;;15.51;38.76;96790.50;6327806;28;20871;-53
2024/03/04 10:42:18;;;;;;;3.97;1.40;;;;;;;15.51;39.28;96785.94;6333266;28;20793;-54
2024/03/04 10:45:20;;;;;;;2.93;1.40;;;;;;;15.44;39.37;96782.84;6312519;28;20189;-54
2024/03/04 10:48:23;;;;;;;4.10;1.37;;;;;;;15.35;39.25;96777.34;6333431;28;20193;-55
2024/03/04 10:51:28;;;;;;;6.30;1.43;;;;;;;15.45;39.10;96771.00;6338857;28;20664;-54
2024/03/04 10:54:30;;;;;;;3.70;1.20;;;;;;;15.63;38.89;96778.25;6338660;28;20565;-55
2024/03/04 10:57:34;;;;;;;4.43;1.43;;;;;;;15.82;38.81;96780.06;6322745;28;20809;-56
2024/03/04 11:00:39;;;;;;;3.53;1.20;;;;;;;15.72;37.94;96784.53;6329396;28;20719;-50
2024/03/04 11:03:50;;;;;;;4.67;1.47;;;;;;;15.67;37.96;96776.56;6324699;28;20194;-52
2024/03/04 11:06:53;;;;;;;1.93;1.13;;;;;;;15.58;37.67;96780.19;6331576;28;20205;-53
2024/03/04 11:09:57;;;;;;;2.23;1.03;;;;;;;15.70;38.43;96775.94;6334020;28;20198;-53
2024/03/04 11:13:18;;;;;;;3.03;0.90;;;;;;;15.86;38.55;96770.28;6332825;28;20220;-55
2024/03/04 11:16:37;;;;;;;1.10;0.93;;;;;;;15.80;37.04;96769.59;6326351;28;20198;-52
2024/03/04 11:19:51;;;;;;;3.60;1.03;;;;;;;15.72;37.35;96773.00;6335876;28;20191;-55
2024/03/04 11:22:54;;;;;;;3.93;1.00;;;;;;;15.77;37.22;96770.22;6340383;28;20196;-50
2024/03/04 11:25:57;;;;;;;3.17;1.00;;;;;;;15.78;37.65;96771.81;6337759;28;20190;-53
2024/03/04 11:29:00;;;;;;;3.53;1.23;;;;;;;15.76;37.46;96765.91;6322691;28;20197;-51
2024/03/04 11:32:08;;;;;;;2.03;1.30;;;;;;;15.76;37.18;96767.81;6324454;28;20197;-53
2024/03/04 11:35:25;;;;;;;1.93;1.00;;;;;;;15.54;38.60;96758.50;6331931;28;20194;-51
2024/03/04 11:38:28;;;;;;;2.90;1.37;;;;;;;15.68;38.15;96763.94;6330535;28;20653;-48
2024/03/04 11:41:41;;;;;;;1.87;1.10;;;;;;;15.66;38.11;96763.41;6324750;28;20715;-51
2024/03/04 11:44:45;;;;;;;4.60;0.90;;;;;;;15.62;37.83;96760.53;6302285;28;20198;-52
2024/03/04 11:47:49;;;;;;;4.00;1.10;;;;;;;15.61;38.24;96758.09;6306684;28;20198;-52
2024/03/04 11:50:51;;;;;;;2.43;1.00;;;;;;;15.61;37.76;96766.97;6314608;28;20706;-50
2024/03/04 11:53:55;;;;;;;3.10;1.03;;;;;;;15.81;37.51;96755.09;6304089;28;20517;-51
2024/03/04 11:56:59;;;;;;;4.20;1.27;;;;;;;15.92;37.74;96761.88;6311429;28;20197;-53
2024/03/04 12:00:13;;;;;;;4.10;1.07;;;;;;;16.08;38.64;96758.88;6301790;28;20198;-55
2024/03/04 12:03:16;;;;;;;4.17;1.20;;;;;;;15.78;36.79;96769.13;6306436;28;20270;-48
2024/03/04 12:06:18;;;;;;;2.83;1.03;;;;;;;15.87;37.11;96763.84;6302776;28;20656;-50
2024/03/04 12:09:26;;;;;;;4.13;1.13;;;;;;;16.02;37.37;96758.19;6304104;28;20345;-52
2024/03/04 12:12:48;;;;;;;3.97;1.00;;;;;;;16.30;36.29;96761.63;6299794;28;20202;-54
2024/03/04 12:15:56;;;;;;;8.43;1.23;;;;;;;16.34;36.20;96756.44;6313105;28;20682;-50
2024/03/04 12:19:00;;;;;;;4.90;1.23;;;;;;;16.17;36.66;96732.88;6312901;28;20196;-52
2024/03/04 12:22:03;;;;;;;2.47;1.27;;;;;;;16.27;36.21;96759.56;6286548;28;20190;-51
2024/03/04 12:25:08;;;;;;;4.73;1.30;;;;;;;16.30;37.53;96753.56;6313201;28;20272;-50
2024/03/04 12:28:17;;;;;;;2.60;0.93;;;;;;;16.58;36.33;96759.69;6300797;28;20198;-54
2024/03/04 12:31:20;;;;;;;5.17;1.43;;;;;;;16.75;36.02;96759.09;6304620;28;20332;-53
2024/03/04 12:34:22;;;;;;;1.97;0.80;;;;;;;16.61;34.73;96729.50;6303709;28;20224;-55
2024/03/04 12:37:24;;;;;;;1.50;0.93;;;;;;;16.71;35.95;96745.44;6307228;28;20193;-49
2024/03/04 12:40:27;;;;;;;1.40;0.93;;;;;;;16.81;35.99;96749.00;6310715;28;20703;-55
2024/03/04 12:43:30;;;;;;;3.07;1.10;;;;;;;16.89;35.89;96748.25;6291400;28;20223;-50
2024/03/04 12:46:35;;;;;;;2.17;1.00;;;;;;;16.86;35.67;96757.75;6292435;28;20195;-55
2024/03/04 12:49:39;;;;;;;5.90;1.33;;;;;;;16.69;35.05;96755.66;6309755;28;20190;-51
2024/03/04 12:52:41;;;;;;;3.47;1.03;;;;;;;16.70;35.17;96751.09;6305994;28;20214;-54
2024/03/04 12:55:47;;;;;;;3.43;1.00;;;;;;;16.83;36.11;96758.34;6289512;28;20221;-52
2024/03/04 12:58:50;;;;;;;2.57;1.00;;;;;;;16.79;35.48;96751.19;6306027;28;20202;-52
2024/03/04 13:01:52;;;;;;;3.87;1.10;;;;;;;16.95;34.76;96753.22;6302923;28;20202;-53
2024/03/04 13:04:54;;;;;;;2.07;1.27;;;;;;;16.90;34.58;96742.59;6305461;28;20178;-52
2024/03/04 13:07:57;;;;;;;3.90;1.00;;;;;;;16.83;36.11;96746.78;6281363;28;20198;-50
2024/03/04 13:10:59;;;;;;;1.70;0.93;;;;;;;16.80;35.30;96748.22;6297831;28;20222;-54
2024/03/04 13:14:01;;;;;;;2.30;1.00;;;;;;;16.82;35.87;96761.34;6311595;28;20671;-54
2024/03/04 13:17:04;;;;;;;1.43;1.00;;;;;;;16.72;35.06;96747.03;6308943;28;20194;-53
2024/03/04 13:20:10;;;;;;;2.67;1.00;;;;;;;16.67;28.74;96749.00;6312355;28;20201;-49
2024/03/04 13:23:12;;;;;;;2.37;0.70;;;;;;;16.60;27.79;96741.38;6304741;28;20241;-53
2024/03/04 13:26:15;;;;;;;3.80;1.03;;;;;;;16.72;29.81;96748.91;6300842;28;20195;-50
2024/03/04 13:29:17;;;;;;;0.97;0.70;;;;;;;16.74;28.26;96744.03;6304299;28;20653;-51
2024/03/04 13:32:19;;;;;;;1.70;0.80;;;;;;;16.76;26.92;96739.16;6300787;28;20202;-55
2024/03/04 13:35:21;;;;;;;2.40;0.70;;;;;;;16.66;26.50;96740.16;6299838;28;20218;-53
2024/03/04 13:38:27;;;;;;;0.80;0.57;;;;;;;16.63;26.53;96735.38;6312586;28;20194;-56
2024/03/04 13:41:30;;;;;;;2.87;0.60;;;;;;;16.66;29.29;96731.28;6314621;28;20230;-53
2024/03/04 13:44:32;;;;;;;4.90;0.93;;;;;;;16.76;27.53;96739.16;6314867;28;20190;-56
2024/03/04 13:47:35;;;;;;;4.10;0.83;;;;;;;16.72;30.57;96748.91;6309713;28;20645;-56
2024/03/04 13:50:37;;;;;;;3.40;0.90;;;;;;;16.77;27.46;96741.53;6308002;28;20678;-50
2024/03/04 13:53:41;;;;;;;1.83;0.70;;;;;;;16.45;27.94;96728.25;6307796;28;20878;-54
2024/03/04 13:56:46;;;;;;;1.73;0.73;;;;;;;16.39;28.05;96740.22;6272152;28;20203;-53
2024/03/04 13:59:48;;;;;;;1.10;0.60;;;;;;;16.27;30.77;96743.44;6302422;28;20341;-53
2024/03/04 14:02:51;;;;;;;1.13;0.67;;;;;;;16.20;28.56;96745.72;6313256;28;20682;-50
2024/03/04 14:05:53;;;;;;;0.60;0.57;;;;;;;16.37;27.53;96727.06;6314687;28;20199;-50
2024/03/04 14:08:57;;;;;;;1.10;0.67;;;;;;;16.08;31.61;96735.47;6314983;28;20590;-54
2024/03/04 14:11:59;;;;;;;1.00;0.70;;;;;;;15.67;31.89;96720.19;6314194;28;20196;-52
2024/03/04 14:15:02;;;;;;;0.73;0.53;;;;;;;15.67;28.83;96738.19;6316180;28;20745;-52
2024/03/04 14:18:05;;;;;;;6.77;1.10;;;;;;;15.67;31.91;96735.50;6313396;28;20205;-52
2024/03/04 14:21:07;;;;;;;1.70;0.70;;;;;;;15.72;29.09;96725.44;6308490;28;20201;-55
2024/03/04 14:24:10;;;;;;;1.57;0.70;;;;;;;15.72;28.61;96730.81;6306413;28;20193;-53